UTN weather

Pierre Van Ryneveld Airport
Upington, Northern Cape, South Africa

Public forecast

Using degrees Celsius for public forecast. Weather courtesy of forecast.io.

Current aviation weather report (METAR) for Pierre Van Ryneveld Airport

Retrieved 2019/10/17 11:00 UTC (31 minutes ago):

FAUP 171100Z 33011KT 9999 SCT050 FEW060TCU 35/08 Q1019 NOSIG

Aviation forecast (TAF) for Pierre Van Ryneveld Airport

Retrieved 2019/10/17 06:00 UTC (6 hours ago):

TAF FAUP 170400Z 1706/1806 34010KT CAVOK TX37/1712Z TN24/1804Z PROB30 TEMPO 1710/1716 9999 TS FEW080CB